Time;durP1;ratioP1;P1;durP2;ratioP2;P2;SDS_P1;SDS_P2;PMS_P1;PMS_P2;Temp;Humidity;BMP_temperature;BMP_pressure;BME280_temperature;BME280_humidity;BME280_pressure;Samples;Min_cycle;Max_cycle;Signal;HPM_P1;HPM_P2
2021/12/28 00:01:44;;;;;;;12.48;3.13;;;;;;;;;;4995927;28;20038;-80
2021/12/28 00:04:10;;;;;;;;;;;;;;;;;;4977851;28;20433;-80
2021/12/28 00:06:37;;;;;;;13.82;3.10;;;;;;;;;;5000255;28;19917;-80
2021/12/28 00:09:04;;;;;;;14.00;3.72;;;;;;;;;;4996420;28;20025;-80
2021/12/28 00:11:31;;;;;;;14.85;3.25;;;;;;;;;;4998281;28;20044;-80
2021/12/28 00:14:01;;;;;;;12.02;2.75;;;;;;;;;;4997178;28;20620;-80
2021/12/28 00:16:33;;;;;;;10.65;3.00;;;;;;;;;;4996664;28;20040;-80
2021/12/28 00:19:00;;;;;;;11.25;2.88;;;;;;;;;;4998320;28;20029;-80
2021/12/28 00:21:29;;;;;;;11.82;2.50;;;;;;;;;;4997619;28;20120;-79
2021/12/28 00:23:58;;;;;;;15.20;3.85;;;;;;;;;;4997203;28;20045;-80
2021/12/28 00:26:24;;;;;;;13.68;3.88;;;;;;;;;;4997437;28;20045;-80
2021/12/28 00:28:52;;;;;;;12.50;2.75;;;;;;;;;;4995288;28;20033;-81
2021/12/28 00:31:19;;;;;;;12.93;4.28;;;;;;;;;;5013337;28;20562;-80
2021/12/28 00:33:46;;;;;;;11.50;3.70;;;;;;;;;;4995293;28;20987;-81
2021/12/28 00:36:15;;;;;;;11.63;3.40;;;;;;;;;;4999745;28;20069;-80
2021/12/28 00:38:42;;;;;;;11.32;2.78;;;;;;;;;;4998817;28;20041;-80
2021/12/28 00:41:09;;;;;;;11.02;3.10;;;;;;;;;;4975293;28;20068;-80
2021/12/28 00:43:36;;;;;;;9.95;2.78;;;;;;;;;;4996249;28;20033;-81
2021/12/28 00:46:04;;;;;;;15.27;3.97;;;;;;;;;;4996610;28;20031;-80
2021/12/28 00:48:33;;;;;;;11.57;2.95;;;;;;;;;;5001695;28;20043;-82
2021/12/28 00:51:01;;;;;;;12.25;3.03;;;;;;;;;;4995790;28;20017;-82
2021/12/28 00:53:27;;;;;;;10.73;2.92;;;;;;;;;;5000526;28;20186;-84
2021/12/28 00:55:55;;;;;;;12.20;2.90;;;;;;;;;;4994887;28;20022;-82
2021/12/28 00:58:21;;;;;;;9.80;2.88;;;;;;;;;;4995320;28;20100;-84
2021/12/28 01:00:47;;;;;;;;;;;;;;;;;;4998541;28;20041;-83
2021/12/28 01:03:14;;;;;;;10.55;2.33;;;;;;;;;;4999576;28;19924;-83
2021/12/28 01:05:41;;;;;;;11.40;3.03;;;;;;;;;;4998548;28;20103;-83
2021/12/28 01:08:09;;;;;;;10.68;2.95;;;;;;;;;;4998537;28;20032;-82
2021/12/28 01:10:44;;;;;;;10.85;3.17;;;;;;;;;;5000350;28;20080;-81
2021/12/28 01:13:10;;;;;;;12.60;3.35;;;;;;;;;;5002440;28;20037;-82
2021/12/28 01:15:37;;;;;;;11.32;3.42;;;;;;;;;;5000588;28;20025;-84
2021/12/28 01:18:04;;;;;;;14.20;3.80;;;;;;;;;;4998436;28;20057;-82
2021/12/28 01:20:32;;;;;;;10.38;2.85;;;;;;;;;;5001135;28;20025;-81
2021/12/28 01:22:59;;;;;;;11.60;3.25;;;;;;;;;;4993344;28;20136;-81
2021/12/28 01:25:26;;;;;;;;;;;;;;;;;;4992327;28;20366;-79
2021/12/28 01:27:55;;;;;;;13.35;3.38;;;;;;;;;;4998533;28;19917;-82
2021/12/28 01:30:22;;;;;;;13.98;3.25;;;;;;;;;;4996106;28;20095;-81
2021/12/28 01:32:51;;;;;;;12.75;3.08;;;;;;;;;;4995857;28;20545;-81
2021/12/28 01:35:24;;;;;;;11.45;3.05;;;;;;;;;;4997230;28;20117;-81
2021/12/28 01:37:58;;;;;;;11.60;2.78;;;;;;;;;;4996635;28;20036;-81
2021/12/28 01:40:30;;;;;;;10.57;2.72;;;;;;;;;;5002196;28;20443;-84
2021/12/28 01:43:01;;;;;;;12.20;2.85;;;;;;;;;;5000585;28;20042;-83
2021/12/28 01:45:33;;;;;;;9.63;2.65;;;;;;;;;;4997728;28;20079;-83
2021/12/28 01:47:59;;;;;;;12.63;3.22;;;;;;;;;;5013322;28;20060;-82
2021/12/28 01:50:28;;;;;;;14.80;2.80;;;;;;;;;;5001397;28;20029;-82
2021/12/28 01:52:55;;;;;;;10.82;2.25;;;;;;;;;;5000309;28;20030;-81
2021/12/28 01:55:21;;;;;;;13.57;2.95;;;;;;;;;;5001297;28;20033;-82
2021/12/28 01:57:48;;;;;;;;;;;;;;;;;;4998805;28;20029;-82
2021/12/28 02:00:17;;;;;;;11.48;2.45;;;;;;;;;;4999390;28;19913;-82
2021/12/28 02:02:43;;;;;;;10.13;3.05;;;;;;;;;;4999914;28;20048;-82
2021/12/28 02:05:10;;;;;;;10.02;2.78;;;;;;;;;;5000107;28;20612;-81
2021/12/28 02:07:38;;;;;;;10.50;2.80;;;;;;;;;;5002254;28;20061;-81
2021/12/28 02:10:05;;;;;;;11.50;3.03;;;;;;;;;;5012451;28;20864;-81
2021/12/28 02:12:31;;;;;;;13.55;3.35;;;;;;;;;;5000644;28;20017;-82
2021/12/28 02:14:58;;;;;;;11.88;3.47;;;;;;;;;;5000059;28;20300;-82
2021/12/28 02:17:24;;;;;;;10.85;2.88;;;;;;;;;;5000546;28;20124;-82
2021/12/28 02:19:50;;;;;;;;;;;;;;;;;;4985628;28;20061;-81
2021/12/28 02:22:16;;;;;;;13.10;3.08;;;;;;;;;;5003039;28;20073;-81
2021/12/28 02:24:42;;;;;;;;;;;;;;;;;;5014331;28;20131;-82
2021/12/28 02:27:08;;;;;;;13.00;3.55;;;;;;;;;;5019454;28;20007;-83
2021/12/28 02:29:35;;;;;;;15.40;4.05;;;;;;;;;;5009599;28;20029;-82
2021/12/28 02:32:12;;;;;;;13.02;3.53;;;;;;;;;;5015399;28;20017;-83
2021/12/28 02:34:39;;;;;;;;;;;;;;;;;;5038082;28;20810;-82
2021/12/28 02:37:06;;;;;;;13.55;3.30;;;;;;;;;;5018780;28;20800;-82
2021/12/28 02:39:34;;;;;;;12.60;3.50;;;;;;;;;;5019984;28;20133;-82
2021/12/28 02:42:00;;;;;;;12.75;3.05;;;;;;;;;;5006107;28;20049;-82
2021/12/28 02:44:26;;;;;;;;;;;;;;;;;;5004209;28;20039;-81
2021/12/28 02:46:54;;;;;;;12.07;2.92;;;;;;;;;;5000328;28;20528;-81
2021/12/28 02:49:21;;;;;;;11.25;3.08;;;;;;;;;;5006008;28;20033;-82
2021/12/28 02:51:49;;;;;;;12.23;3.10;;;;;;;;;;4998425;28;20029;-81
2021/12/28 02:54:16;;;;;;;13.07;3.13;;;;;;;;;;4984611;28;20032;-81
2021/12/28 02:56:43;;;;;;;11.40;2.60;;;;;;;;;;5002526;28;20087;-83
2021/12/28 02:59:12;;;;;;;14.43;2.80;;;;;;;;;;5002325;28;20106;-81
2021/12/28 03:01:40;;;;;;;13.82;3.00;;;;;;;;;;5003926;28;20641;-81
2021/12/28 03:04:08;;;;;;;11.50;2.60;;;;;;;;;;5002575;28;20049;-82
2021/12/28 03:06:38;;;;;;;10.52;2.40;;;;;;;;;;5003611;28;20017;-81
2021/12/28 03:09:09;;;;;;;11.18;2.42;;;;;;;;;;4999246;28;20061;-85
2021/12/28 03:11:36;;;;;;;12.35;2.78;;;;;;;;;;4968621;28;20112;-83
2021/12/28 03:14:05;;;;;;;16.00;2.78;;;;;;;;;;4984548;28;20928;-81
2021/12/28 03:16:33;;;;;;;11.68;2.72;;;;;;;;;;4999529;28;20044;-81
2021/12/28 03:18:59;;;;;;;12.40;2.42;;;;;;;;;;4999420;28;20032;-82
2021/12/28 03:21:27;;;;;;;12.27;2.40;;;;;;;;;;5002650;28;20029;-83
2021/12/28 03:23:56;;;;;;;9.93;2.30;;;;;;;;;;5000352;28;20034;-81
2021/12/28 03:26:22;;;;;;;10.88;2.90;;;;;;;;;;5001691;28;20053;-82
2021/12/28 03:28:48;;;;;;;13.20;3.17;;;;;;;;;;5002009;28;20076;-82
2021/12/28 03:31:16;;;;;;;13.07;2.60;;;;;;;;;;5003305;28;20132;-81
2021/12/28 03:33:44;;;;;;;10.13;2.55;;;;;;;;;;5000957;28;20030;-81
2021/12/28 03:36:13;;;;;;;12.27;2.90;;;;;;;;;;5002084;28;20053;-81
2021/12/28 03:38:40;;;;;;;10.68;2.58;;;;;;;;;;5003603;28;20040;-81
2021/12/28 03:41:07;;;;;;;10.15;2.38;;;;;;;;;;5000036;28;20033;-81
2021/12/28 03:43:38;;;;;;;11.98;2.45;;;;;;;;;;4985899;28;20088;-80
2021/12/28 03:46:05;;;;;;;12.00;2.70;;;;;;;;;;5001614;28;21157;-81
2021/12/28 03:48:33;;;;;;;10.70;2.53;;;;;;;;;;4999343;28;20060;-81
2021/12/28 03:51:00;;;;;;;13.45;3.20;;;;;;;;;;4997846;28;20128;-81
2021/12/28 03:53:27;;;;;;;11.43;2.50;;;;;;;;;;4987138;28;20033;-81
2021/12/28 03:55:55;;;;;;;12.57;2.80;;;;;;;;;;5002122;28;20095;-81
2021/12/28 03:58:21;;;;;;;11.13;2.78;;;;;;;;;;5001757;28;20017;-83
2021/12/28 04:00:48;;;;;;;10.02;2.28;;;;;;;;;;4999798;28;20034;-81
2021/12/28 04:03:15;;;;;;;10.88;2.20;;;;;;;;;;5007058;28;20087;-85
2021/12/28 04:05:44;;;;;;;10.70;2.50;;;;;;;;;;5005373;28;20041;-85
2021/12/28 04:08:13;;;;;;;10.35;2.13;;;;;;;;;;5008735;28;20795;-85
2021/12/28 04:11:03;;;;;;;10.32;2.10;;;;;;;;;;5004395;28;20021;-82
2021/12/28 04:13:29;;;;;;;12.10;2.50;;;;;;;;;;4990166;28;20041;-82
2021/12/28 04:15:56;;;;;;;9.88;2.30;;;;;;;;;;5016453;28;20029;-81
2021/12/28 04:18:26;;;;;;;10.27;2.25;;;;;;;;;;5001243;28;20040;-81
2021/12/28 04:20:54;;;;;;;13.02;2.25;;;;;;;;;;4998703;28;20041;-81
2021/12/28 04:23:22;;;;;;;10.68;2.00;;;;;;;;;;5004753;28;20121;-81
2021/12/28 04:25:48;;;;;;;11.05;2.22;;;;;;;;;;5002128;28;21724;-81
2021/12/28 04:28:16;;;;;;;;;;;;;;;;;;5000392;28;20420;-82
2021/12/28 04:30:42;;;;;;;10.80;2.72;;;;;;;;;;5004927;28;19996;-85
2021/12/28 04:33:08;;;;;;;;;;;;;;;;;;5007303;28;20021;-83
2021/12/28 04:35:36;;;;;;;10.15;2.20;;;;;;;;;;5015964;28;19920;-87
2021/12/28 04:38:02;;;;;;;11.80;2.20;;;;;;;;;;5011744;28;20030;-87
2021/12/28 04:40:29;;;;;;;10.95;2.20;;;;;;;;;;5011634;28;20037;-89
2021/12/28 04:42:57;;;;;;;13.32;2.45;;;;;;;;;;5012750;28;20094;-90
2021/12/28 04:45:24;;;;;;;9.50;2.08;;;;;;;;;;5015028;28;20034;-89
2021/12/28 04:47:51;;;;;;;10.30;2.33;;;;;;;;;;5014787;28;20467;-89
2021/12/28 04:50:18;;;;;;;9.57;2.20;;;;;;;;;;5012781;28;20095;-90
2021/12/28 04:52:45;;;;;;;11.60;2.67;;;;;;;;;;5014429;28;20030;-88
2021/12/28 04:55:14;;;;;;;10.68;2.33;;;;;;;;;;5014991;28;20056;-89
2021/12/28 04:57:40;;;;;;;9.73;2.35;;;;;;;;;;5016032;28;20033;-88
2021/12/28 05:00:10;;;;;;;10.23;2.20;;;;;;;;;;5028457;28;20036;-88
2021/12/28 05:02:36;;;;;;;11.25;2.05;;;;;;;;;;5012111;28;20116;-87
2021/12/28 05:05:04;;;;;;;9.75;2.30;;;;;;;;;;5014181;28;20060;-88
2021/12/28 05:07:33;;;;;;;9.50;1.88;;;;;;;;;;5012650;28;20040;-87
2021/12/28 05:10:02;;;;;;;9.85;1.70;;;;;;;;;;5011866;28;20490;-86
2021/12/28 05:12:30;;;;;;;13.30;2.28;;;;;;;;;;5016455;28;20026;-87
2021/12/28 05:15:00;;;;;;;9.23;1.90;;;;;;;;;;5012674;28;20047;-86
2021/12/28 05:17:31;;;;;;;11.02;2.33;;;;;;;;;;5014101;28;20613;-87
2021/12/28 05:19:59;;;;;;;9.95;2.05;;;;;;;;;;5014328;28;20025;-86
2021/12/28 05:22:26;;;;;;;10.95;2.15;;;;;;;;;;5016388;28;20454;-86
2021/12/28 05:24:55;;;;;;;11.20;2.03;;;;;;;;;;5013661;28;20041;-88
2021/12/28 05:27:23;;;;;;;9.57;2.05;;;;;;;;;;4998128;28;20042;-87
2021/12/28 05:29:50;;;;;;;12.00;2.35;;;;;;;;;;5017781;28;20477;-87
2021/12/28 05:32:17;;;;;;;11.18;2.10;;;;;;;;;;5018862;28;20033;-88
2021/12/28 05:34:45;;;;;;;13.35;2.40;;;;;;;;;;5019409;28;20546;-88
2021/12/28 05:37:11;;;;;;;11.23;2.25;;;;;;;;;;5016594;28;20034;-88
2021/12/28 05:39:40;;;;;;;10.55;1.98;;;;;;;;;;5017892;28;20025;-89
2021/12/28 05:42:08;;;;;;;9.27;1.92;;;;;;;;;;5023489;28;20029;-89
2021/12/28 05:44:35;;;;;;;9.75;1.80;;;;;;;;;;5023406;28;20026;-88
2021/12/28 05:47:04;;;;;;;7.72;1.90;;;;;;;;;;5024027;28;20037;-89
2021/12/28 05:49:32;;;;;;;9.18;1.60;;;;;;;;;;5015215;28;20053;-86
2021/12/28 05:52:00;;;;;;;9.82;1.85;;;;;;;;;;5019038;28;20163;-87
2021/12/28 05:54:31;;;;;;;11.40;1.95;;;;;;;;;;5019747;28;20744;-88
2021/12/28 05:56:58;;;;;;;10.25;2.10;;;;;;;;;;5021232;28;20021;-87
2021/12/28 05:59:24;;;;;;;11.75;2.08;;;;;;;;;;5023159;28;20025;-88
2021/12/28 06:01:50;;;;;;;;;;;;;;;;;;5021250;28;20459;-87
2021/12/28 06:04:18;;;;;;;7.35;1.70;;;;;;;;;;5019911;28;19970;-86
2021/12/28 06:06:46;;;;;;;9.35;1.92;;;;;;;;;;5021801;28;20030;-87
2021/12/28 06:09:12;;;;;;;10.77;2.15;;;;;;;;;;5019197;28;20037;-87
2021/12/28 06:11:39;;;;;;;9.48;1.73;;;;;;;;;;5024486;28;20030;-89
2021/12/28 06:14:07;;;;;;;;;;;;;;;;;;5028483;28;20033;-89
2021/12/28 06:16:35;;;;;;;9.43;1.90;;;;;;;;;;5042212;28;19909;-89
2021/12/28 06:19:04;;;;;;;8.88;1.75;;;;;;;;;;5006297;28;20041;-89
2021/12/28 06:21:33;;;;;;;9.23;1.52;;;;;;;;;;5023786;28;20041;-88
2021/12/28 06:24:01;;;;;;;12.20;2.33;;;;;;;;;;5031236;28;20052;-89
2021/12/28 06:26:31;;;;;;;8.57;1.58;;;;;;;;;;5011971;28;20033;-88
2021/12/28 06:28:59;;;;;;;9.38;2.13;;;;;;;;;;5011213;28;20028;-89
2021/12/28 06:31:29;;;;;;;10.98;1.83;;;;;;;;;;5014334;28;20046;-89
2021/12/28 06:33:57;;;;;;;9.32;2.55;;;;;;;;;;5011462;28;20610;-89
2021/12/28 06:36:25;;;;;;;10.52;2.50;;;;;;;;;;5002212;28;20785;-89
2021/12/28 06:38:55;;;;;;;10.30;2.30;;;;;;;;;;5016026;28;20049;-89
2021/12/28 06:41:21;;;;;;;9.15;1.92;;;;;;;;;;5005038;28;20611;-88
2021/12/28 06:43:48;;;;;;;9.15;2.10;;;;;;;;;;5001877;28;20033;-89
2021/12/28 06:46:17;;;;;;;9.18;2.40;;;;;;;;;;5020834;28;20152;-88
2021/12/28 06:48:45;;;;;;;11.65;2.20;;;;;;;;;;5033292;28;20045;-90
2021/12/28 06:51:11;;;;;;;16.77;3.08;;;;;;;;;;5006059;28;20033;-89
2021/12/28 06:53:40;;;;;;;11.90;2.55;;;;;;;;;;5019517;28;20696;-89
2021/12/28 06:56:10;;;;;;;12.20;2.47;;;;;;;;;;5030814;28;20033;-89
2021/12/28 06:58:37;;;;;;;12.73;2.67;;;;;;;;;;5032457;28;20102;-88
2021/12/28 07:01:04;;;;;;;11.88;2.40;;;;;;;;;;5017655;28;20033;-89
2021/12/28 07:03:33;;;;;;;12.25;2.25;;;;;;;;;;4995536;28;20075;-89
2021/12/28 07:06:02;;;;;;;11.93;2.30;;;;;;;;;;5010229;28;20053;-89
2021/12/28 07:08:31;;;;;;;11.50;2.35;;;;;;;;;;5031296;28;20036;-89
2021/12/28 07:10:58;;;;;;;11.63;2.33;;;;;;;;;;5013918;28;20034;-89
2021/12/28 07:13:27;;;;;;;13.30;2.00;;;;;;;;;;5015485;28;20045;-89
2021/12/28 07:15:56;;;;;;;11.95;2.40;;;;;;;;;;5011397;28;20326;-88
2021/12/28 07:18:23;;;;;;;11.07;2.08;;;;;;;;;;5016961;28;20137;-89
2021/12/28 07:20:51;;;;;;;11.80;2.72;;;;;;;;;;4996352;28;20109;-90
2021/12/28 07:23:20;;;;;;;10.23;2.00;;;;;;;;;;5012503;28;20021;-89
2021/12/28 07:25:53;;;;;;;12.02;2.40;;;;;;;;;;5011065;28;20818;-89
2021/12/28 07:28:20;;;;;;;11.85;2.38;;;;;;;;;;5016259;28;20194;-89
2021/12/28 07:30:47;;;;;;;10.45;2.28;;;;;;;;;;5014429;28;20528;-90
2021/12/28 07:33:15;;;;;;;;;;;;;;;;;;4996352;28;20021;-90
2021/12/28 07:35:43;;;;;;;10.00;1.85;;;;;;;;;;5015413;28;19922;-90
2021/12/28 07:38:12;;;;;;;8.32;1.80;;;;;;;;;;5013530;28;20034;-89
2021/12/28 07:40:40;;;;;;;7.18;1.65;;;;;;;;;;5013457;28;20060;-90
2021/12/28 07:43:09;;;;;;;11.20;2.10;;;;;;;;;;5013845;28;20025;-89
2021/12/28 07:45:35;;;;;;;11.30;2.60;;;;;;;;;;5030576;28;20080;-85
2021/12/28 07:48:01;;;;;;;11.75;2.50;;;;;;;;;;5013468;28;20029;-89
2021/12/28 07:50:33;;;;;;;10.60;2.40;;;;;;;;;;5017766;28;20033;-90
2021/12/28 07:53:00;;;;;;;11.55;2.78;;;;;;;;;;5017004;28;20041;-89
2021/12/28 07:55:31;;;;;;;9.90;2.17;;;;;;;;;;5028481;28;20063;-90
2021/12/28 07:57:58;;;;;;;9.05;2.17;;;;;;;;;;5025938;28;20025;-90
2021/12/28 08:00:28;;;;;;;11.15;2.30;;;;;;;;;;5020487;28;20124;-89
2021/12/28 08:03:00;;;;;;;10.57;2.38;;;;;;;;;;5021924;28;20033;-89
2021/12/28 08:05:33;;;;;;;10.45;2.40;;;;;;;;;;5020174;28;20057;-90
2021/12/28 08:08:08;;;;;;;10.38;2.30;;;;;;;;;;5019005;28;20121;-88
2021/12/28 08:10:35;;;;;;;9.68;2.30;;;;;;;;;;5018218;28;20029;-91
2021/12/28 08:13:02;;;;;;;12.38;2.47;;;;;;;;;;5014851;28;20029;-90
2021/12/28 08:15:28;;;;;;;;;;;;;;;;;;5018050;28;20037;-90
2021/12/28 08:17:56;;;;;;;9.87;2.37;;;;;;;;;;5030029;28;19923;-91
2021/12/28 08:20:22;;;;;;;9.68;2.10;;;;;;;;;;5030799;28;20762;-91
2021/12/28 08:22:51;;;;;;;10.32;2.10;;;;;;;;;;5023361;28;20021;-87
2021/12/28 08:25:20;;;;;;;12.35;2.35;;;;;;;;;;5016091;28;20128;-89
2021/12/28 08:27:48;;;;;;;10.02;2.25;;;;;;;;;;5016018;28;20495;-90
2021/12/28 08:30:15;;;;;;;7.97;1.92;;;;;;;;;;5018108;28;20037;-89
2021/12/28 08:32:44;;;;;;;7.72;1.63;;;;;;;;;;5015058;28;20109;-89
2021/12/28 08:35:11;;;;;;;12.00;2.53;;;;;;;;;;5015540;28;20026;-89
2021/12/28 08:37:39;;;;;;;11.43;2.35;;;;;;;;;;5014607;28;20904;-87
2021/12/28 08:40:08;;;;;;;12.10;2.97;;;;;;;;;;5009384;28;20099;-90
2021/12/28 08:42:36;;;;;;;10.63;2.88;;;;;;;;;;5029949;28;20033;-92
2021/12/28 08:45:04;;;;;;;9.85;2.90;;;;;;;;;;5010619;28;20029;-89
2021/12/28 08:47:32;;;;;;;9.30;2.45;;;;;;;;;;5015992;28;20034;-92
2021/12/28 08:50:01;;;;;;;10.40;2.80;;;;;;;;;;5015393;28;20034;-92
2021/12/28 08:52:27;;;;;;;8.18;2.30;;;;;;;;;;5000994;28;20022;-91
2021/12/28 08:54:53;;;;;;;10.30;2.50;;;;;;;;;;5013602;28;20068;-92
2021/12/28 08:57:19;;;;;;;;;;;;;;;;;;5031184;28;20037;-91
2021/12/28 08:59:46;;;;;;;13.35;4.22;;;;;;;;;;5014021;28;19913;-93
2021/12/28 09:02:13;;;;;;;11.40;3.50;;;;;;;;;;5014861;28;20017;-92
2021/12/28 09:04:43;;;;;;;8.85;2.50;;;;;;;;;;5014215;28;20119;-90
2021/12/28 09:07:10;;;;;;;10.45;2.78;;;;;;;;;;5011605;28;20104;-92
2021/12/28 09:09:38;;;;;;;10.68;2.83;;;;;;;;;;5015038;28;20021;-86
2021/12/28 09:12:06;;;;;;;11.05;3.20;;;;;;;;;;5027286;28;20112;-93
2021/12/28 09:14:34;;;;;;;14.25;4.70;;;;;;;;;;5021804;28;20029;-93
2021/12/28 09:17:02;;;;;;;13.27;4.47;;;;;;;;;;5016091;28;20029;-94
2021/12/28 09:19:30;;;;;;;18.88;7.80;;;;;;;;;;5024077;28;20033;-92
2021/12/28 09:21:57;;;;;;;16.90;6.60;;;;;;;;;;5017946;28;20025;-94
2021/12/28 09:24:25;;;;;;;13.55;5.13;;;;;;;;;;5025523;28;20045;-94
2021/12/28 09:26:52;;;;;;;14.50;5.75;;;;;;;;;;5039956;28;20033;-94
2021/12/28 09:29:19;;;;;;;13.55;4.88;;;;;;;;;;5004770;28;20032;-91
2021/12/28 09:31:45;;;;;;;14.05;4.10;;;;;;;;;;5010292;28;20132;-92
2021/12/28 09:34:12;;;;;;;11.57;3.97;;;;;;;;;;5014701;28;20105;-84
2021/12/28 09:36:40;;;;;;;15.07;4.43;;;;;;;;;;5014178;28;20021;-83
2021/12/28 09:39:09;;;;;;;12.05;3.88;;;;;;;;;;4997830;28;20022;-83
2021/12/28 09:41:37;;;;;;;11.52;3.85;;;;;;;;;;4999577;28;20099;-82
2021/12/28 09:44:04;;;;;;;11.93;3.40;;;;;;;;;;5009037;28;20045;-82
2021/12/28 09:46:31;;;;;;;12.80;3.40;;;;;;;;;;5000281;28;20037;-82
2021/12/28 09:48:58;;;;;;;11.98;2.72;;;;;;;;;;4980460;28;20033;-83
2021/12/28 09:51:26;;;;;;;10.80;2.90;;;;;;;;;;4999705;28;20022;-82
2021/12/28 09:53:55;;;;;;;10.10;2.83;;;;;;;;;;4996477;28;20033;-82
2021/12/28 09:56:22;;;;;;;10.93;2.60;;;;;;;;;;4982665;28;20041;-83
2021/12/28 09:58:49;;;;;;;11.50;3.13;;;;;;;;;;4999696;28;21398;-83
2021/12/28 10:01:17;;;;;;;10.50;2.92;;;;;;;;;;5004285;28;20026;-81
2021/12/28 10:03:45;;;;;;;11.43;3.00;;;;;;;;;;4999536;28;20546;-82
2021/12/28 10:06:16;;;;;;;9.85;2.20;;;;;;;;;;4998839;28;20045;-82
2021/12/28 10:08:44;;;;;;;10.23;2.80;;;;;;;;;;5003044;28;20029;-82
2021/12/28 10:11:13;;;;;;;10.85;3.05;;;;;;;;;;4999077;28;20026;-81
2021/12/28 10:13:40;;;;;;;8.68;2.17;;;;;;;;;;5003158;28;20040;-81
2021/12/28 10:16:07;;;;;;;9.63;2.28;;;;;;;;;;4995087;28;20087;-81
2021/12/28 10:18:35;;;;;;;9.52;2.10;;;;;;;;;;5000091;28;20075;-81
2021/12/28 10:21:06;;;;;;;9.07;2.25;;;;;;;;;;5000640;28;20235;-81
2021/12/28 10:23:34;;;;;;;10.73;2.53;;;;;;;;;;5002485;28;20037;-81
2021/12/28 10:26:08;;;;;;;12.80;2.58;;;;;;;;;;4980977;28;20041;-81
2021/12/28 10:28:38;;;;;;;10.20;2.20;;;;;;;;;;5005737;28;20062;-81
2021/12/28 10:31:07;;;;;;;12.95;2.92;;;;;;;;;;4998930;28;20032;-81
2021/12/28 10:33:36;;;;;;;8.48;2.50;;;;;;;;;;4980354;28;20077;-81
2021/12/28 10:36:07;;;;;;;12.40;2.92;;;;;;;;;;4979815;28;20104;-81
2021/12/28 10:38:36;;;;;;;10.85;3.13;;;;;;;;;;4979132;28;20113;-81
2021/12/28 10:41:10;;;;;;;9.95;2.70;;;;;;;;;;4963270;28;20038;-81
2021/12/28 10:43:38;;;;;;;10.45;2.53;;;;;;;;;;4981614;28;20092;-82
2021/12/28 10:46:08;;;;;;;10.60;2.65;;;;;;;;;;4976051;28;21697;-81
2021/12/28 10:48:38;;;;;;;11.50;3.05;;;;;;;;;;4981611;28;20038;-81
2021/12/28 10:51:09;;;;;;;10.65;2.70;;;;;;;;;;4976173;28;20763;-83
2021/12/28 10:53:55;;;;;;;9.23;2.60;;;;;;;;;;4980102;28;20611;-80
2021/12/28 10:56:22;;;;;;;8.57;3.00;;;;;;;;;;4964904;28;20026;-82
2021/12/28 10:58:51;;;;;;;9.32;2.53;;;;;;;;;;4977713;28;20038;-82
2021/12/28 11:01:26;;;;;;;8.73;2.55;;;;;;;;;;4965872;28;20630;-82
2021/12/28 11:04:00;;;;;;;9.25;2.50;;;;;;;;;;4977127;28;20149;-83
2021/12/28 11:06:30;;;;;;;10.27;2.25;;;;;;;;;;4980495;28;20699;-82
2021/12/28 11:09:00;;;;;;;11.55;2.53;;;;;;;;;;4962424;28;20326;-82
2021/12/28 11:11:28;;;;;;;9.13;2.67;;;;;;;;;;4961777;28;20140;-81
2021/12/28 11:13:59;;;;;;;8.15;2.33;;;;;;;;;;4963743;28;20025;-82
2021/12/28 11:16:26;;;;;;;10.52;3.22;;;;;;;;;;4975812;28;20038;-82
2021/12/28 11:18:54;;;;;;;10.63;2.70;;;;;;;;;;4958125;28;20758;-82
2021/12/28 11:21:24;;;;;;;9.60;2.50;;;;;;;;;;4979564;28;20038;-82
2021/12/28 11:23:53;;;;;;;11.07;3.10;;;;;;;;;;4974074;28;20044;-82
2021/12/28 11:26:31;;;;;;;10.00;3.33;;;;;;;;;;5000307;28;20045;-82
2021/12/28 11:29:08;;;;;;;13.27;4.32;;;;;;;;;;4998985;28;20144;-82
2021/12/28 11:31:47;;;;;;;9.95;3.95;;;;;;;;;;4996175;28;20177;-82
2021/12/28 11:34:19;;;;;;;12.05;4.53;;;;;;;;;;4998380;28;20096;-82
2021/12/28 11:36:45;;;;;;;14.30;4.70;;;;;;;;;;5002137;28;20029;-84
2021/12/28 11:39:34;;;;;;;10.77;3.78;;;;;;;;;;4996467;28;20041;-82
2021/12/28 11:42:02;;;;;;;9.32;3.22;;;;;;;;;;4998036;28;20040;-84
2021/12/28 11:44:30;;;;;;;10.00;3.17;;;;;;;;;;5001065;28;20030;-84
2021/12/28 11:46:59;;;;;;;10.43;2.70;;;;;;;;;;4997734;28;20757;-83
2021/12/28 11:49:28;;;;;;;9.52;2.45;;;;;;;;;;5000633;28;20044;-81
2021/12/28 11:52:01;;;;;;;9.75;2.38;;;;;;;;;;4997365;28;20033;-82
2021/12/28 11:54:32;;;;;;;6.93;1.95;;;;;;;;;;5001312;28;20029;-81
2021/12/28 11:57:01;;;;;;;7.43;2.05;;;;;;;;;;4994142;28;20033;-81
2021/12/28 11:59:32;;;;;;;7.20;1.67;;;;;;;;;;5002681;28;20030;-81
2021/12/28 12:02:09;;;;;;;7.55;2.17;;;;;;;;;;4996053;28;20155;-81
2021/12/28 12:04:39;;;;;;;7.78;2.22;;;;;;;;;;4998404;28;20041;-82
2021/12/28 12:07:19;;;;;;;7.60;2.25;;;;;;;;;;5012159;28;21337;-82
2021/12/28 12:09:57;;;;;;;7.28;1.80;;;;;;;;;;5002487;28;20110;-81
2021/12/28 12:12:43;;;;;;;5.93;1.70;;;;;;;;;;4994385;28;20025;-82
2021/12/28 12:15:12;;;;;;;7.60;1.60;;;;;;;;;;4992733;28;20025;-82
2021/12/28 12:17:43;;;;;;;7.00;1.65;;;;;;;;;;4984682;28;20072;-82
2021/12/28 12:20:24;;;;;;;7.32;1.58;;;;;;;;;;4978723;28;20137;-82
2021/12/28 12:23:10;;;;;;;6.85;1.60;;;;;;;;;;4978421;28;20088;-81
2021/12/28 12:25:50;;;;;;;8.68;2.08;;;;;;;;;;4963554;28;20050;-80
2021/12/28 12:28:21;;;;;;;7.70;1.80;;;;;;;;;;4983452;28;20670;-81
2021/12/28 12:30:53;;;;;;;7.47;1.90;;;;;;;;;;4979731;28;20032;-82
2021/12/28 12:33:20;;;;;;;8.95;1.88;;;;;;;;;;4981922;28;20041;-82
2021/12/28 12:35:59;;;;;;;7.32;1.90;;;;;;;;;;4962713;28;20161;-82
2021/12/28 12:38:30;;;;;;;7.85;2.00;;;;;;;;;;4969656;28;20033;-83
2021/12/28 12:40:59;;;;;;;9.20;2.13;;;;;;;;;;4978151;28;20029;-83
2021/12/28 12:43:26;;;;;;;8.93;2.83;;;;;;;;;;4984936;28;20033;-82
2021/12/28 12:45:57;;;;;;;8.95;2.60;;;;;;;;;;4963358;28;20856;-82
2021/12/28 12:48:31;;;;;;;11.60;3.13;;;;;;;;;;4983645;28;20044;-82
2021/12/28 12:51:27;;;;;;;10.82;3.10;;;;;;;;;;4979272;28;20252;-81
2021/12/28 12:54:19;;;;;;;10.30;3.47;;;;;;;;;;4982293;28;20460;-81
2021/12/28 12:56:57;;;;;;;8.57;2.72;;;;;;;;;;4983826;28;20025;-80
2021/12/28 12:59:42;;;;;;;11.40;2.85;;;;;;;;;;4984353;28;20033;-82
2021/12/28 13:02:11;;;;;;;11.20;3.00;;;;;;;;;;4979996;28;20046;-84
2021/12/28 13:04:45;;;;;;;10.27;2.92;;;;;;;;;;4968343;28;20029;-82
2021/12/28 13:07:12;;;;;;;11.00;2.95;;;;;;;;;;4984452;28;20030;-83
2021/12/28 13:09:46;;;;;;;9.45;2.88;;;;;;;;;;5016386;28;20080;-82
2021/12/28 13:12:15;;;;;;;9.63;2.90;;;;;;;;;;5007425;28;20649;-82
2021/12/28 13:14:43;;;;;;;8.57;2.45;;;;;;;;;;5003673;28;20026;-81
2021/12/28 13:17:30;;;;;;;7.50;2.00;;;;;;;;;;5004933;28;20026;-84
2021/12/28 13:20:17;;;;;;;6.57;1.75;;;;;;;;;;5005625;28;20029;-81
2021/12/28 13:22:51;;;;;;;7.43;1.63;;;;;;;;;;5001164;28;20116;-81
2021/12/28 13:25:26;;;;;;;6.30;1.30;;;;;;;;;;5000768;28;20029;-83
2021/12/28 13:27:53;;;;;;;7.03;2.03;;;;;;;;;;4999991;28;20025;-81
2021/12/28 13:30:23;;;;;;;6.93;2.00;;;;;;;;;;5001993;28;20030;-84
2021/12/28 13:32:55;;;;;;;8.05;2.15;;;;;;;;;;4999470;28;20025;-83
2021/12/28 13:35:31;;;;;;;8.05;2.40;;;;;;;;;;5006464;28;20033;-83
2021/12/28 13:38:02;;;;;;;7.40;1.80;;;;;;;;;;5005736;28;20506;-82
2021/12/28 13:40:31;;;;;;;6.68;1.50;;;;;;;;;;5002146;28;20056;-82
2021/12/28 13:43:01;;;;;;;7.50;1.60;;;;;;;;;;4998773;28;20025;-83
2021/12/28 13:46:01;;;;;;;6.30;1.58;;;;;;;;;;5002804;28;20025;-82
2021/12/28 13:48:35;;;;;;;8.00;1.73;;;;;;;;;;5003148;28;20037;-82
2021/12/28 13:51:13;;;;;;;6.00;1.50;;;;;;;;;;4998807;28;20047;-83
2021/12/28 13:53:43;;;;;;;7.15;1.50;;;;;;;;;;5003288;28;20021;-82
2021/12/28 13:56:13;;;;;;;7.53;1.80;;;;;;;;;;4998292;28;20025;-81
2021/12/28 13:58:41;;;;;;;7.03;1.40;;;;;;;;;;5004272;28;20033;-82
2021/12/28 14:01:13;;;;;;;8.50;1.70;;;;;;;;;;4996514;28;20029;-82
2021/12/28 14:03:39;;;;;;;6.50;1.55;;;;;;;;;;5004395;28;20251;-82
2021/12/28 14:06:08;;;;;;;7.78;1.70;;;;;;;;;;4999067;28;20053;-82
2021/12/28 14:08:41;;;;;;;8.55;2.00;;;;;;;;;;5006221;28;20590;-82
2021/12/28 14:11:12;;;;;;;6.80;2.17;;;;;;;;;;5000881;28;20396;-82
2021/12/28 14:13:41;;;;;;;6.05;1.70;;;;;;;;;;5004312;28;20040;-83
2021/12/28 14:16:09;;;;;;;7.13;1.95;;;;;;;;;;4999681;28;20044;-83
2021/12/28 14:18:36;;;;;;;8.55;1.90;;;;;;;;;;4999753;28;20095;-82
2021/12/28 14:21:16;;;;;;;7.63;1.85;;;;;;;;;;4997353;28;20029;-82
2021/12/28 14:23:44;;;;;;;8.05;1.83;;;;;;;;;;5001226;28;20416;-82
2021/12/28 14:26:19;;;;;;;8.18;1.98;;;;;;;;;;4998328;28;20552;-82
2021/12/28 14:28:58;;;;;;;8.23;2.20;;;;;;;;;;5013252;28;20041;-83
2021/12/28 14:31:26;;;;;;;10.00;3.42;;;;;;;;;;5019334;28;20130;-83
2021/12/28 14:33:55;;;;;;;9.35;2.90;;;;;;;;;;4998254;28;20484;-82
2021/12/28 14:36:30;;;;;;;9.90;2.92;;;;;;;;;;4985728;28;20038;-82
2021/12/28 14:39:07;;;;;;;6.07;1.67;;;;;;;;;;4998894;28;20029;-83
2021/12/28 14:41:35;;;;;;;9.07;2.58;;;;;;;;;;4996349;28;20039;-82
2021/12/28 14:44:26;;;;;;;9.80;2.78;;;;;;;;;;4999002;28;20626;-82
2021/12/28 14:46:53;;;;;;;9.77;2.10;;;;;;;;;;5024720;28;20041;-90
2021/12/28 14:49:26;;;;;;;11.23;2.28;;;;;;;;;;5013036;28;20037;-91
2021/12/28 14:52:07;;;;;;;8.30;2.10;;;;;;;;;;5006783;28;20033;-91